createdAt,value
2022-08-29T00:00:18.580Z,19.70
2022-08-29T00:02:48.279Z,19.60
2022-08-29T00:05:16.140Z,19.60
2022-08-29T00:07:43.076Z,19.60
2022-08-29T00:10:10.511Z,19.70
2022-08-29T00:12:37.947Z,19.60
2022-08-29T00:15:07.732Z,19.70
2022-08-29T00:17:34.867Z,19.70
2022-08-29T00:20:02.187Z,19.70
2022-08-29T00:22:29.222Z,19.70
2022-08-29T00:24:56.188Z,19.70
2022-08-29T00:27:23.188Z,19.70
2022-08-29T00:29:50.278Z,19.70
2022-08-29T00:32:17.324Z,19.70
2022-08-29T00:34:44.342Z,19.60
2022-08-29T00:37:11.375Z,19.50
2022-08-29T00:39:38.411Z,19.60
2022-08-29T00:42:06.655Z,19.50
2022-08-29T00:44:33.679Z,19.50
2022-08-29T00:47:09.635Z,19.50
2022-08-29T00:49:43.328Z,19.50
2022-08-29T00:52:39.882Z,19.50
2022-08-29T00:55:14.156Z,19.40
2022-08-29T00:57:46.703Z,19.40
2022-08-29T01:00:15.882Z,19.30
2022-08-29T01:02:43.500Z,19.30
2022-08-29T01:05:12.924Z,19.30
2022-08-29T01:07:40.705Z,19.30
2022-08-29T01:10:13.461Z,19.30
2022-08-29T01:12:41.573Z,19.30
2022-08-29T01:15:12.593Z,19.30
2022-08-29T01:17:45.975Z,19.30
2022-08-29T01:21:00.773Z,19.40
2022-08-29T01:23:32.624Z,19.50
2022-08-29T01:26:02.380Z,19.50
2022-08-29T01:28:33.314Z,19.40
2022-08-29T01:31:10.706Z,19.40
2022-08-29T01:33:46.001Z,19.30
2022-08-29T01:36:25.553Z,19.30
2022-08-29T01:38:53.188Z,19.30
2022-08-29T01:41:21.741Z,19.20
2022-08-29T01:43:52.119Z,19.20
2022-08-29T01:46:28.576Z,19.20
2022-08-29T01:48:55.995Z,19.20
2022-08-29T01:51:24.762Z,19.20
2022-08-29T01:53:53.243Z,19.20
2022-08-29T01:56:24.151Z,19.30
2022-08-29T01:58:52.878Z,19.20
2022-08-29T02:01:25.500Z,19.20
2022-08-29T02:03:52.629Z,19.20
2022-08-29T02:06:19.905Z,19.20
2022-08-29T02:08:47.160Z,19.20
2022-08-29T02:11:16.517Z,19.20
2022-08-29T02:13:46.966Z,19.20
2022-08-29T02:16:14.339Z,19.20
2022-08-29T02:18:44.896Z,19.10
2022-08-29T02:21:24.818Z,19.10
2022-08-29T02:23:53.105Z,19.20
2022-08-29T02:26:22.047Z,19.20
2022-08-29T02:28:50.667Z,19.10
2022-08-29T02:31:19.034Z,19.20
2022-08-29T02:33:46.775Z,19.10
2022-08-29T02:36:18.162Z,19.10
2022-08-29T02:38:46.868Z,19.20
2022-08-29T02:41:17.091Z,19.20
2022-08-29T02:43:45.008Z,19.30
2022-08-29T02:46:20.030Z,19.30
2022-08-29T02:48:54.126Z,19.40
2022-08-29T02:51:31.620Z,19.40
2022-08-29T02:54:00.144Z,19.40
2022-08-29T02:56:27.782Z,19.40
2022-08-29T02:58:54.804Z,19.40
2022-08-29T03:01:23.820Z,19.50
2022-08-29T03:03:51.699Z,19.50
2022-08-29T03:06:20.169Z,19.50
2022-08-29T03:08:47.752Z,19.60
2022-08-29T03:11:18.543Z,19.60
2022-08-29T03:13:46.239Z,19.80
2022-08-29T03:16:16.455Z,19.80
2022-08-29T03:18:43.755Z,19.90
2022-08-29T03:21:22.183Z,20.00
2022-08-29T03:23:51.879Z,20.10
2022-08-29T03:26:20.446Z,20.20
2022-08-29T03:28:47.653Z,20.30
2022-08-29T03:31:17.803Z,20.30
2022-08-29T03:33:44.879Z,20.40
2022-08-29T03:36:14.938Z,20.40
2022-08-29T03:38:47.369Z,20.60
2022-08-29T03:41:27.207Z,20.70
2022-08-29T03:43:58.985Z,20.80
2022-08-29T03:46:26.725Z,20.90
2022-08-29T03:48:53.966Z,20.90
2022-08-29T03:51:21.046Z,20.90
2022-08-29T03:53:48.026Z,21.00
2022-08-29T03:56:27.770Z,21.00
2022-08-29T03:58:55.905Z,21.00
2022-08-29T04:01:26.290Z,21.00
2022-08-29T04:03:54.409Z,20.90
2022-08-29T04:06:22.682Z,20.90
2022-08-29T04:08:51.761Z,20.90
2022-08-29T04:11:20.673Z,21.00
2022-08-29T04:13:48.971Z,21.00
2022-08-29T04:16:19.607Z,21.00
2022-08-29T04:18:46.662Z,21.00
2022-08-29T04:21:13.943Z,20.90
2022-08-29T04:23:41.398Z,20.80
2022-08-29T04:29:05.481Z,20.60
2022-08-29T04:31:32.513Z,20.50
2022-08-29T04:33:59.774Z,20.40
2022-08-29T04:36:28.214Z,20.40
2022-08-29T04:38:55.571Z,20.30
2022-08-29T04:41:22.868Z,20.30
2022-08-29T04:43:49.991Z,20.20
2022-08-29T04:46:24.097Z,20.20
2022-08-29T04:48:53.456Z,20.20
2022-08-29T04:51:20.631Z,20.20
2022-08-29T04:53:48.325Z,20.20
2022-08-29T04:56:15.370Z,20.20
2022-08-29T04:58:44.597Z,20.30
2022-08-29T05:01:21.330Z,20.30
2022-08-29T05:03:49.685Z,20.30
2022-08-29T05:06:18.505Z,20.30
2022-08-29T05:08:59.345Z,20.30
2022-08-29T05:11:29.435Z,20.30
2022-08-29T05:13:57.094Z,20.30
2022-08-29T05:16:24.205Z,20.40
2022-08-29T05:18:52.395Z,20.40
2022-08-29T05:21:35.098Z,20.50
2022-08-29T05:24:05.677Z,20.50
2022-08-29T05:26:36.801Z,20.60
2022-08-29T05:29:08.487Z,20.70
2022-08-29T05:31:37.184Z,20.70
2022-08-29T05:34:32.718Z,20.70
2022-08-29T05:36:52.555Z,20.70
2022-08-29T05:39:19.919Z,20.70
2022-08-29T05:41:46.937Z,20.70
2022-08-29T05:44:13.892Z,20.80
2022-08-29T05:46:41.061Z,20.90
2022-08-29T05:49:08.132Z,21.00
2022-08-29T05:51:39.702Z,21.10
2022-08-29T05:54:07.420Z,21.20
2022-08-29T05:56:34.966Z,21.30
2022-08-29T05:59:02.406Z,21.40
2022-08-29T06:01:32.960Z,21.50
2022-08-29T06:04:01.330Z,21.50
2022-08-29T06:06:29.505Z,21.60
2022-08-29T06:08:59.478Z,21.60
2022-08-29T06:11:30.208Z,21.70
2022-08-29T06:13:57.719Z,21.70
2022-08-29T06:16:26.670Z,21.80
2022-08-29T06:18:54.027Z,21.80
2022-08-29T06:21:21.812Z,21.90
2022-08-29T06:23:49.156Z,21.90
2022-08-29T06:26:17.325Z,22.00
2022-08-29T06:28:46.611Z,22.10
2022-08-29T06:31:21.086Z,22.10
2022-08-29T06:33:51.593Z,22.00
2022-08-29T06:36:19.831Z,22.10
2022-08-29T06:38:47.187Z,22.10
2022-08-29T06:41:16.779Z,22.20
2022-08-29T06:43:44.191Z,22.20
2022-08-29T06:46:39.062Z,22.20
2022-08-29T06:49:08.633Z,22.10
2022-08-29T06:51:37.750Z,22.00
2022-08-29T06:54:07.037Z,22.00
2022-08-29T06:56:36.713Z,21.90
2022-08-29T06:59:05.098Z,22.00
2022-08-29T07:01:33.361Z,22.00
2022-08-29T07:04:01.632Z,22.10
2022-08-29T07:06:28.977Z,22.00
2022-08-29T07:08:57.920Z,21.90
2022-08-29T07:11:26.712Z,21.90
2022-08-29T07:13:59.003Z,21.80
2022-08-29T07:16:26.516Z,21.80
2022-08-29T07:18:53.892Z,21.80
2022-08-29T07:21:24.368Z,21.80
2022-08-29T07:23:52.471Z,21.80
2022-08-29T07:26:28.907Z,22.00
2022-08-29T07:29:00.928Z,22.10
2022-08-29T07:31:31.547Z,22.10
2022-08-29T07:34:02.881Z,22.10
2022-08-29T07:36:34.634Z,22.20
2022-08-29T07:39:04.052Z,22.20
2022-08-29T07:41:31.558Z,22.20
2022-08-29T07:43:58.512Z,22.20
2022-08-29T07:46:27.005Z,22.20
2022-08-29T07:48:54.352Z,22.20
2022-08-29T07:51:23.591Z,22.20
2022-08-29T07:53:51.871Z,22.10
2022-08-29T07:56:25.770Z,22.10
2022-08-29T07:58:54.400Z,22.20
2022-08-29T08:01:22.229Z,22.20
2022-08-29T08:03:53.329Z,22.30
2022-08-29T08:06:23.436Z,22.30
2022-08-29T08:08:50.959Z,22.30
2022-08-29T08:11:19.500Z,22.30
2022-08-29T08:13:47.060Z,22.30
2022-08-29T08:16:17.429Z,22.30
2022-08-29T08:18:44.843Z,22.20
2022-08-29T08:21:15.336Z,22.10
2022-08-29T08:23:43.034Z,22.00
2022-08-29T08:26:12.304Z,22.00
2022-08-29T08:28:41.051Z,21.90
2022-08-29T08:31:09.555Z,21.80
2022-08-29T08:33:41.784Z,21.80
2022-08-29T08:39:15.073Z,21.70
2022-08-29T08:42:06.912Z,21.60
2022-08-29T08:45:03.340Z,21.50
2022-08-29T08:47:44.731Z,21.60
2022-08-29T08:50:35.000Z,21.60
2022-08-29T08:53:28.584Z,21.60
2022-08-29T08:55:58.345Z,21.70
2022-08-29T08:58:40.610Z,21.70
2022-08-29T09:01:19.207Z,21.70
2022-08-29T09:04:13.713Z,21.80
2022-08-29T09:06:51.521Z,21.80
2022-08-29T09:09:50.545Z,21.90
2022-08-29T09:12:37.848Z,21.90
2022-08-29T09:15:13.897Z,22.00
2022-08-29T09:17:43.914Z,22.10
2022-08-29T09:20:16.141Z,22.10
2022-08-29T09:22:50.102Z,22.10
2022-08-29T09:25:17.911Z,22.20
2022-08-29T09:27:45.543Z,22.20
2022-08-29T09:30:25.594Z,22.20
2022-08-29T09:33:07.952Z,22.30
2022-08-29T09:35:52.821Z,22.30
2022-08-29T09:38:25.837Z,22.30
2022-08-29T09:41:10.870Z,22.20
2022-08-29T09:43:40.792Z,22.10
2022-08-29T09:46:26.722Z,22.10
2022-08-29T09:49:13.071Z,22.00
2022-08-29T09:51:45.422Z,22.00
2022-08-29T09:54:26.343Z,22.00
2022-08-29T09:57:02.716Z,21.90
2022-08-29T09:59:39.317Z,21.90
2022-08-29T10:02:17.406Z,21.80
2022-08-29T10:04:48.190Z,21.60
2022-08-29T10:07:26.656Z,21.40
2022-08-29T10:09:57.726Z,21.40
2022-08-29T10:12:38.594Z,21.30
2022-08-29T10:15:27.960Z,21.30
2022-08-29T10:18:20.759Z,21.30
2022-08-29T10:21:04.298Z,21.30
2022-08-29T10:23:39.395Z,21.20
2022-08-29T10:26:28.641Z,21.30
2022-08-29T10:29:48.116Z,21.30
2022-08-29T10:32:24.186Z,21.30
2022-08-29T10:35:06.256Z,21.30
2022-08-29T10:37:52.091Z,21.20
2022-08-29T10:40:23.330Z,21.20
2022-08-29T10:42:56.479Z,21.20
2022-08-29T10:45:36.437Z,21.20
2022-08-29T10:48:44.844Z,21.20
2022-08-29T10:51:36.464Z,21.20
2022-08-29T10:54:41.575Z,21.20
2022-08-29T10:57:10.615Z,21.20
2022-08-29T11:00:00.226Z,21.20
2022-08-29T11:02:40.973Z,21.20
2022-08-29T11:05:32.170Z,21.20
2022-08-29T11:08:11.631Z,21.20
2022-08-29T11:10:45.228Z,21.20
2022-08-29T11:13:29.641Z,21.20
2022-08-29T11:16:14.882Z,21.20
2022-08-29T11:18:48.543Z,21.10
2022-08-29T11:21:33.250Z,21.10
2022-08-29T11:24:03.346Z,21.10
2022-08-29T11:26:45.367Z,21.00
2022-08-29T11:29:40.058Z,21.00
2022-08-29T11:32:40.716Z,21.00
2022-08-29T11:35:41.676Z,20.90
2022-08-29T11:38:26.656Z,20.90
2022-08-29T11:41:30.819Z,20.90
2022-08-29T11:44:03.558Z,20.80
2022-08-29T11:46:41.695Z,20.80
2022-08-29T11:49:24.694Z,20.70
2022-08-29T11:52:11.561Z,20.60
2022-08-29T11:54:39.620Z,20.60
2022-08-29T11:57:06.541Z,20.60
2022-08-29T11:59:56.986Z,20.60
2022-08-29T12:02:32.863Z,20.60
2022-08-29T12:05:08.059Z,20.50
2022-08-29T12:07:37.880Z,20.50
2022-08-29T12:10:29.479Z,20.50
2022-08-29T12:13:01.338Z,20.40
2022-08-29T12:15:32.291Z,20.40
2022-08-29T12:18:21.006Z,20.40
2022-08-29T12:20:52.208Z,20.40
2022-08-29T12:23:31.907Z,20.50
2022-08-29T12:26:22.936Z,20.50
2022-08-29T12:29:01.986Z,20.40
2022-08-29T12:32:18.803Z,20.40
2022-08-29T12:34:49.891Z,20.40
2022-08-29T12:37:28.825Z,20.30
2022-08-29T12:40:08.503Z,20.30
2022-08-29T12:42:57.363Z,20.30
2022-08-29T12:45:27.332Z,20.30
2022-08-29T12:47:57.648Z,20.20
2022-08-29T12:50:32.180Z,20.30
2022-08-29T12:53:15.785Z,20.40
2022-08-29T12:55:46.337Z,20.50
2022-08-29T12:58:39.021Z,20.50
2022-08-29T13:01:27.110Z,20.50
2022-08-29T13:03:57.148Z,20.60
2022-08-29T13:06:24.251Z,20.70
2022-08-29T13:08:51.198Z,20.70
2022-08-29T13:11:24.506Z,20.80
2022-08-29T13:13:51.536Z,20.90
2022-08-29T13:16:30.763Z,21.00
2022-08-29T13:19:11.046Z,21.10
2022-08-29T13:21:38.691Z,21.20
2022-08-29T13:24:05.601Z,21.30
2022-08-29T13:26:34.257Z,21.30
2022-08-29T13:29:04.248Z,21.50
2022-08-29T13:31:36.220Z,21.40
2022-08-29T13:34:19.439Z,21.50
2022-08-29T13:37:00.640Z,21.50
2022-08-29T13:39:32.042Z,21.50
2022-08-29T13:42:01.953Z,21.50
2022-08-29T13:45:04.074Z,21.40
2022-08-29T13:47:35.693Z,21.40
2022-08-29T13:50:08.677Z,21.40
2022-08-29T13:52:35.955Z,21.40
2022-08-29T13:55:03.858Z,21.30
2022-08-29T13:57:31.674Z,21.20
2022-08-29T13:59:59.480Z,21.20
2022-08-29T14:02:27.612Z,21.20
2022-08-29T14:04:54.999Z,21.20
2022-08-29T14:07:27.154Z,21.20
2022-08-29T14:09:54.812Z,21.10
2022-08-29T14:12:32.679Z,21.10
2022-08-29T14:15:05.112Z,21.10
2022-08-29T14:17:35.666Z,21.00
2022-08-29T14:20:02.970Z,21.00
2022-08-29T14:22:29.974Z,21.00
2022-08-29T14:24:56.961Z,21.10
2022-08-29T14:27:23.955Z,21.10
2022-08-29T14:29:51.628Z,21.10
2022-08-29T14:32:18.910Z,21.00
2022-08-29T14:34:51.088Z,21.00
2022-08-29T14:37:19.017Z,21.00
2022-08-29T14:39:49.669Z,21.00
2022-08-29T14:42:17.602Z,20.90
2022-08-29T14:44:45.170Z,20.90
2022-08-29T14:47:18.772Z,20.90
2022-08-29T14:49:45.741Z,20.90
2022-08-29T14:52:15.309Z,20.80
2022-08-29T14:54:43.247Z,20.80
2022-08-29T14:57:11.084Z,20.70
2022-08-29T14:59:39.644Z,20.60
2022-08-29T15:02:08.198Z,20.50
2022-08-29T15:04:37.603Z,20.50
2022-08-29T15:07:07.206Z,20.50
2022-08-29T15:09:34.592Z,20.50
2022-08-29T15:12:01.671Z,20.40
2022-08-29T15:14:28.671Z,20.40
2022-08-29T15:16:55.619Z,20.40
2022-08-29T15:20:18.223Z,20.40
2022-08-29T15:22:10.210Z,20.30
2022-08-29T15:24:38.115Z,20.30
2022-08-29T15:27:06.809Z,20.20
2022-08-29T15:29:35.705Z,20.20
2022-08-29T15:32:03.603Z,20.30
2022-08-29T15:34:31.407Z,20.30
2022-08-29T15:36:59.804Z,20.30
2022-08-29T15:39:29.160Z,20.40
2022-08-29T15:41:58.059Z,20.30
2022-08-29T15:44:25.443Z,20.40
2022-08-29T15:46:57.119Z,20.40
2022-08-29T15:49:26.141Z,20.30
2022-08-29T15:51:54.212Z,20.40
2022-08-29T15:54:23.282Z,20.40
2022-08-29T15:56:51.088Z,20.50
2022-08-29T15:59:30.959Z,20.60
2022-08-29T16:02:10.526Z,20.60
2022-08-29T16:04:38.853Z,20.70
2022-08-29T16:07:06.013Z,20.80
2022-08-29T16:09:33.021Z,20.90
2022-08-29T16:12:00.134Z,21.10
2022-08-29T16:14:57.984Z,21.10
2022-08-29T16:17:17.885Z,21.10
2022-08-29T16:19:44.932Z,21.00
2022-08-29T16:22:12.395Z,21.10
2022-08-29T16:24:39.605Z,21.10
2022-08-29T16:27:07.108Z,21.10
2022-08-29T16:29:35.221Z,21.00
2022-08-29T16:32:02.913Z,21.00
2022-08-29T16:34:30.334Z,21.00
2022-08-29T16:37:02.097Z,20.90
2022-08-29T16:39:30.012Z,20.80
2022-08-29T16:41:57.828Z,20.80
2022-08-29T16:44:25.558Z,20.80
2022-08-29T16:46:53.480Z,20.70
2022-08-29T16:49:21.335Z,20.70
2022-08-29T16:51:49.086Z,20.60
2022-08-29T16:54:16.929Z,20.50
2022-08-29T16:56:45.125Z,20.50
2022-08-29T16:59:12.994Z,20.40
2022-08-29T17:01:44.153Z,20.40
2022-08-29T17:04:15.038Z,20.30
2022-08-29T17:06:43.046Z,20.30
2022-08-29T17:09:10.419Z,20.30
2022-08-29T17:11:38.992Z,20.20
2022-08-29T17:14:07.255Z,20.20
2022-08-29T17:16:35.231Z,20.10
2022-08-29T17:19:02.891Z,20.20
2022-08-29T17:21:30.329Z,20.20
2022-08-29T17:23:57.577Z,20.10
2022-08-29T17:26:24.951Z,20.10
2022-08-29T17:28:53.066Z,20.00
2022-08-29T17:31:20.747Z,20.00
2022-08-29T17:33:48.498Z,20.10
2022-08-29T17:36:19.617Z,20.00
2022-08-29T17:38:47.888Z,20.00
2022-08-29T17:41:19.773Z,20.00
2022-08-29T17:43:49.447Z,20.00
2022-08-29T17:46:18.656Z,20.00
2022-08-29T17:48:46.381Z,20.00
2022-08-29T17:51:30.688Z,20.00
2022-08-29T17:53:58.880Z,20.00
2022-08-29T17:56:38.218Z,20.00
2022-08-29T17:59:12.427Z,20.00
2022-08-29T18:01:39.668Z,20.00
2022-08-29T18:04:07.388Z,20.00
2022-08-29T18:06:35.043Z,19.90
2022-08-29T18:09:03.709Z,19.90
2022-08-29T18:11:32.094Z,19.90
2022-08-29T18:14:02.260Z,19.90
2022-08-29T18:16:29.814Z,19.90
2022-08-29T18:18:57.074Z,20.00
2022-08-29T18:21:24.330Z,20.00
2022-08-29T18:23:51.293Z,20.00
2022-08-29T18:26:18.384Z,20.00
2022-08-29T18:28:45.670Z,20.00
2022-08-29T18:31:18.440Z,20.00
2022-08-29T18:33:59.982Z,20.00
2022-08-29T18:36:29.029Z,20.00
2022-08-29T18:38:56.351Z,19.90
2022-08-29T18:41:24.040Z,19.90
2022-08-29T18:43:52.374Z,19.90
2022-08-29T18:46:20.359Z,19.90
2022-08-29T18:48:48.342Z,19.80
2022-08-29T18:51:16.031Z,19.80
2022-08-29T18:53:43.634Z,19.70
2022-08-29T18:56:11.228Z,19.70
2022-08-29T18:58:39.176Z,19.70
2022-08-29T19:01:13.743Z,19.70
2022-08-29T19:03:42.503Z,19.70
2022-08-29T19:06:11.180Z,19.70
2022-08-29T19:08:39.778Z,19.70
2022-08-29T19:11:08.621Z,19.70
2022-08-29T19:13:36.304Z,19.60
2022-08-29T19:16:05.938Z,19.60
2022-08-29T19:18:34.738Z,19.50
2022-08-29T19:21:06.670Z,19.50
2022-08-29T19:23:39.825Z,19.40
2022-08-29T19:26:28.974Z,19.40
2022-08-29T19:28:59.034Z,19.40
2022-08-29T19:31:27.962Z,19.30
2022-08-29T19:33:55.767Z,19.30
2022-08-29T19:36:24.042Z,19.20
2022-08-29T19:38:51.864Z,19.20
2022-08-29T19:41:19.057Z,19.10
2022-08-29T19:43:46.152Z,19.00
2022-08-29T19:46:20.162Z,19.00
2022-08-29T19:48:51.393Z,18.90
2022-08-29T19:51:21.191Z,18.90
2022-08-29T19:53:48.827Z,18.90
2022-08-29T19:56:18.097Z,18.90
2022-08-29T19:58:45.692Z,18.90
2022-08-29T20:01:12.813Z,18.90
2022-08-29T20:03:42.261Z,18.90
2022-08-29T20:06:10.341Z,18.80
2022-08-29T20:08:42.048Z,18.80
2022-08-29T20:11:14.366Z,18.80
2022-08-29T20:13:47.555Z,18.80
2022-08-29T20:16:19.934Z,18.80
2022-08-29T20:18:50.140Z,18.80
2022-08-29T20:21:19.102Z,18.80
2022-08-29T20:23:49.251Z,18.90
2022-08-29T20:26:19.790Z,18.90
2022-08-29T20:28:47.828Z,18.90
2022-08-29T20:31:14.995Z,18.90
2022-08-29T20:33:44.909Z,18.80
2022-08-29T20:36:30.810Z,18.80
2022-08-29T20:38:58.023Z,18.80
2022-08-29T20:41:25.770Z,18.80
2022-08-29T20:43:52.698Z,18.80
2022-08-29T20:46:19.745Z,18.80
2022-08-29T20:48:46.942Z,18.80
2022-08-29T20:51:14.084Z,18.80
2022-08-29T20:53:41.276Z,18.80
2022-08-29T20:56:08.827Z,18.80
2022-08-29T20:58:36.155Z,18.80
2022-08-29T21:03:52.806Z,18.80
2022-08-29T21:06:21.385Z,18.80
2022-08-29T21:08:48.930Z,18.80
2022-08-29T21:11:16.359Z,18.80
2022-08-29T21:13:43.675Z,18.80
2022-08-29T21:16:11.118Z,18.70
2022-08-29T21:18:38.421Z,18.70
2022-08-29T21:21:05.960Z,18.70
2022-08-29T21:23:34.401Z,18.60
2022-08-29T21:26:02.211Z,18.60
2022-08-29T21:28:32.342Z,18.60
2022-08-29T21:31:09.030Z,18.60
2022-08-29T21:33:38.091Z,18.60
2022-08-29T21:36:08.454Z,18.60
2022-08-29T21:38:35.864Z,18.60
2022-08-29T21:41:02.824Z,18.60
2022-08-29T21:43:29.950Z,18.60
2022-08-29T21:45:56.880Z,18.50
2022-08-29T21:48:23.906Z,18.50
2022-08-29T21:50:55.579Z,18.50
2022-08-29T21:53:23.075Z,18.40
2022-08-29T21:55:50.062Z,18.40
2022-08-29T21:58:18.135Z,18.40
2022-08-29T22:00:45.661Z,18.40
2022-08-29T22:03:13.205Z,18.40
2022-08-29T22:05:43.921Z,18.40
2022-08-29T22:08:13.212Z,18.40
2022-08-29T22:10:42.250Z,18.40
2022-08-29T22:13:09.562Z,18.40
2022-08-29T22:15:55.020Z,18.40
2022-08-29T22:18:22.574Z,18.40
2022-08-29T22:20:54.939Z,18.30
2022-08-29T22:23:23.581Z,18.20
2022-08-29T22:25:51.008Z,18.10
2022-08-29T22:28:18.698Z,18.00
2022-08-29T22:30:45.731Z,17.70
2022-08-29T22:33:16.770Z,17.50
2022-08-29T22:35:44.224Z,17.30
2022-08-29T22:38:11.280Z,17.20
2022-08-29T22:40:38.655Z,17.10
2022-08-29T22:43:06.004Z,17.10
2022-08-29T22:45:33.094Z,17.10
2022-08-29T22:48:21.836Z,17.10
2022-08-29T22:50:54.055Z,17.10
2022-08-29T22:53:25.565Z,17.20
2022-08-29T22:55:52.840Z,17.10
2022-08-29T22:58:19.812Z,17.20
2022-08-29T23:00:46.794Z,17.20
2022-08-29T23:03:13.824Z,17.20
2022-08-29T23:05:41.009Z,17.20
2022-08-29T23:08:07.918Z,17.20
2022-08-29T23:10:35.067Z,17.20
2022-08-29T23:13:02.063Z,17.20
2022-08-29T23:15:29.098Z,17.20
2022-08-29T23:17:56.176Z,17.20
2022-08-29T23:20:23.912Z,17.20
2022-08-29T23:22:56.280Z,17.20
2022-08-29T23:25:24.567Z,17.20
2022-08-29T23:27:51.536Z,17.20
2022-08-29T23:30:18.459Z,17.20
2022-08-29T23:32:45.442Z,17.20
2022-08-29T23:35:12.640Z,17.20
2022-08-29T23:37:39.774Z,17.20
2022-08-29T23:40:07.634Z,17.20
2022-08-29T23:42:34.875Z,17.20
2022-08-29T23:45:01.926Z,17.20
2022-08-29T23:47:28.909Z,17.10
2022-08-29T23:49:55.923Z,17.20
2022-08-29T23:52:23.023Z,17.10
2022-08-29T23:54:50.108Z,17.20
2022-08-29T23:57:17.042Z,17.20
